createdAt,value
2017-07-09T00:01:17.376Z,8.10
2017-07-09T00:03:44.832Z,8.60
2017-07-09T00:06:12.292Z,7.60
2017-07-09T00:08:39.856Z,7.20
2017-07-09T00:11:07.411Z,7.80
2017-07-09T00:13:34.866Z,7.97
2017-07-09T00:16:02.330Z,7.63
2017-07-09T00:18:30.567Z,7.70
2017-07-09T00:20:58.252Z,7.20
2017-07-09T00:23:25.715Z,7.10
2017-07-09T00:25:53.276Z,7.77
2017-07-09T00:28:20.730Z,6.80
2017-07-09T00:30:48.204Z,7.40
2017-07-09T00:33:16.439Z,7.63
2017-07-09T00:35:43.890Z,7.57
2017-07-09T00:38:11.361Z,6.97
2017-07-09T00:40:38.927Z,7.57
2017-07-09T00:43:06.394Z,7.43
2017-07-09T00:45:33.864Z,7.23
2017-07-09T00:48:02.123Z,7.13
2017-07-09T00:50:29.674Z,8.07
2017-07-09T00:52:57.140Z,7.43
2017-07-09T00:55:24.686Z,7.00
2017-07-09T00:57:52.257Z,7.93
2017-07-09T01:00:19.712Z,8.00
2017-07-09T01:02:47.262Z,7.30
2017-07-09T01:05:14.718Z,7.17
2017-07-09T01:07:42.291Z,6.37
2017-07-09T01:10:09.829Z,7.30
2017-07-09T01:12:37.289Z,6.30
2017-07-09T01:15:04.753Z,7.20
2017-07-09T01:17:32.218Z,6.63
2017-07-09T01:19:59.767Z,6.57
2017-07-09T01:22:27.234Z,6.03
2017-07-09T01:24:55.498Z,6.60
2017-07-09T01:27:23.769Z,7.10
2017-07-09T01:29:51.247Z,6.70
2017-07-09T01:32:19.501Z,7.00
2017-07-09T01:34:46.980Z,6.23
2017-07-09T01:37:15.208Z,7.73
2017-07-09T01:39:42.694Z,6.50
2017-07-09T01:42:10.257Z,6.83
2017-07-09T01:44:37.725Z,6.50
2017-07-09T01:47:05.986Z,6.43
2017-07-09T01:49:33.531Z,5.97
2017-07-09T01:52:01.096Z,5.60
2017-07-09T01:54:28.674Z,6.03
2017-07-09T01:56:56.133Z,6.20
2017-07-09T01:59:24.352Z,7.00
2017-07-09T02:01:51.878Z,5.73
2017-07-09T02:04:20.127Z,6.23
2017-07-09T02:06:47.583Z,5.33
2017-07-09T02:09:15.148Z,5.73
2017-07-09T02:11:42.606Z,6.83
2017-07-09T02:14:10.163Z,5.20
2017-07-09T02:16:37.618Z,5.40
2017-07-09T02:19:05.078Z,5.17
2017-07-09T02:21:33.309Z,5.03
2017-07-09T02:24:00.798Z,5.10
2017-07-09T02:26:28.359Z,4.80
2017-07-09T02:28:55.919Z,5.00
2017-07-09T02:31:23.465Z,4.53
2017-07-09T02:33:50.931Z,4.57
2017-07-09T02:36:18.514Z,4.13
2017-07-09T02:38:46.742Z,3.97
2017-07-09T02:41:14.217Z,3.97
2017-07-09T02:43:41.686Z,4.10
2017-07-09T02:46:09.910Z,3.93
2017-07-09T02:48:37.374Z,4.40
2017-07-09T02:51:04.843Z,4.20
2017-07-09T02:53:32.326Z,3.97
2017-07-09T02:55:59.887Z,3.50
2017-07-09T02:58:27.448Z,3.67
2017-07-09T03:00:54.910Z,3.67
2017-07-09T03:03:23.179Z,4.10
2017-07-09T03:05:50.646Z,3.80
2017-07-09T03:08:18.901Z,3.80
2017-07-09T03:10:46.511Z,4.03
2017-07-09T03:13:13.926Z,3.37
2017-07-09T03:15:41.400Z,4.60
2017-07-09T03:18:09.618Z,4.83
2017-07-09T03:20:37.106Z,3.73
2017-07-09T03:23:04.673Z,3.77
2017-07-09T03:25:32.221Z,4.17
2017-07-09T03:27:59.800Z,4.50
2017-07-09T03:30:28.038Z,4.40
2017-07-09T03:32:55.502Z,3.63
2017-07-09T03:35:23.079Z,3.77
2017-07-09T03:37:50.630Z,4.17
2017-07-09T03:40:18.094Z,3.97
2017-07-09T03:42:45.638Z,4.33
2017-07-09T03:45:13.223Z,3.90
2017-07-09T03:47:41.455Z,4.43
2017-07-09T03:50:08.944Z,4.23
2017-07-09T03:52:36.398Z,4.77
2017-07-09T03:55:03.867Z,3.37
2017-07-09T03:57:32.096Z,3.83
2017-07-09T03:59:59.602Z,3.73
2017-07-09T04:02:27.870Z,4.00
2017-07-09T04:04:55.595Z,4.80
2017-07-09T04:07:23.053Z,4.10
2017-07-09T04:09:50.543Z,4.20
2017-07-09T04:12:18.009Z,4.53
2017-07-09T04:14:46.261Z,3.80
2017-07-09T04:17:13.822Z,3.93
2017-07-09T04:19:41.381Z,4.70
2017-07-09T04:22:08.933Z,4.17
2017-07-09T04:24:36.498Z,4.20
2017-07-09T04:27:04.067Z,4.70
2017-07-09T04:29:31.522Z,4.50
2017-07-09T04:31:59.079Z,4.50
2017-07-09T04:34:26.547Z,4.33
2017-07-09T04:36:54.088Z,4.30
2017-07-09T04:39:21.550Z,4.30
2017-07-09T04:41:49.014Z,4.83
2017-07-09T04:44:17.248Z,4.80
2017-07-09T04:46:44.732Z,4.73
2017-07-09T04:49:12.290Z,4.23
2017-07-09T04:51:39.757Z,5.00
2017-07-09T04:54:07.264Z,5.00
2017-07-09T04:56:34.766Z,4.40
2017-07-09T04:59:02.327Z,3.63
2017-07-09T05:01:29.860Z,4.43
2017-07-09T05:03:57.330Z,4.80
2017-07-09T05:06:26.612Z,5.00
2017-07-09T05:08:54.255Z,4.70
2017-07-09T05:11:21.706Z,3.77
2017-07-09T05:13:49.237Z,4.03
2017-07-09T05:16:17.496Z,5.07
2017-07-09T05:18:45.038Z,4.83
2017-07-09T05:21:12.499Z,5.50
2017-07-09T05:23:39.956Z,5.00
2017-07-09T05:26:07.557Z,4.43
2017-07-09T05:28:35.134Z,4.00
2017-07-09T05:31:02.596Z,4.17
2017-07-09T05:33:30.063Z,3.80
2017-07-09T05:35:57.555Z,3.83
2017-07-09T05:38:25.014Z,3.67
2017-07-09T05:40:52.468Z,3.20
2017-07-09T05:43:20.082Z,3.43
2017-07-09T05:45:47.544Z,4.30
2017-07-09T05:48:15.010Z,4.40
2017-07-09T05:50:42.491Z,3.57
2017-07-09T05:53:10.045Z,4.17
2017-07-09T05:55:37.598Z,3.63
2017-07-09T05:58:05.067Z,3.67
2017-07-09T06:00:32.528Z,3.30
2017-07-09T06:02:59.983Z,3.10
2017-07-09T06:05:27.494Z,3.47
2017-07-09T06:07:55.000Z,2.80
2017-07-09T06:10:22.462Z,3.00
2017-07-09T06:12:49.922Z,3.63
2017-07-09T06:15:17.395Z,3.77
2017-07-09T06:17:44.850Z,4.47
2017-07-09T06:20:12.393Z,3.80
2017-07-09T06:22:40.708Z,3.10
2017-07-09T06:25:08.219Z,3.10
2017-07-09T06:27:35.666Z,3.67
2017-07-09T06:30:03.134Z,3.63
2017-07-09T06:32:31.398Z,4.60
2017-07-09T06:34:58.967Z,3.80
2017-07-09T06:37:26.522Z,4.90
2017-07-09T06:39:54.076Z,3.03
2017-07-09T06:42:21.543Z,3.27
2017-07-09T06:44:49.811Z,2.90
2017-07-09T06:47:17.355Z,2.73
2017-07-09T06:49:44.864Z,3.20
2017-07-09T06:52:12.383Z,2.90
2017-07-09T06:54:39.947Z,2.93
2017-07-09T06:57:08.195Z,2.70
2017-07-09T06:59:35.651Z,3.10
2017-07-09T07:02:03.113Z,2.90
2017-07-09T07:04:30.571Z,3.27
2017-07-09T07:06:58.137Z,3.07
2017-07-09T07:09:25.592Z,3.27
2017-07-09T07:11:53.164Z,2.70
2017-07-09T07:14:20.726Z,3.03
2017-07-09T07:16:48.283Z,3.27
2017-07-09T07:19:15.746Z,2.80
2017-07-09T07:21:44.010Z,3.43
2017-07-09T07:24:11.474Z,3.63
2017-07-09T07:26:39.797Z,2.97
2017-07-09T07:29:07.284Z,2.60
2017-07-09T07:31:34.746Z,2.90
2017-07-09T07:34:02.305Z,3.33
2017-07-09T07:36:31.822Z,3.07
2017-07-09T07:38:59.369Z,3.13
2017-07-09T07:41:26.822Z,2.93
2017-07-09T07:43:54.381Z,3.40
2017-07-09T07:46:21.953Z,3.27
2017-07-09T07:48:49.515Z,3.30
2017-07-09T07:51:17.122Z,2.60
2017-07-09T07:53:44.581Z,3.03
2017-07-09T07:56:12.078Z,2.93
2017-07-09T07:58:39.634Z,2.90
2017-07-09T08:01:07.103Z,3.93
2017-07-09T08:03:34.650Z,3.57
2017-07-09T08:06:02.205Z,3.03
2017-07-09T08:08:29.766Z,4.13
2017-07-09T08:10:57.326Z,2.93
2017-07-09T08:13:24.873Z,3.50
2017-07-09T08:15:52.437Z,3.40
2017-07-09T08:18:20.006Z,3.97
2017-07-09T08:20:47.558Z,4.20
2017-07-09T08:23:15.012Z,3.67
2017-07-09T08:25:42.479Z,4.10
2017-07-09T08:28:10.025Z,3.73
2017-07-09T08:30:37.485Z,4.03
2017-07-09T08:33:05.008Z,3.27
2017-07-09T08:35:32.498Z,4.63
2017-07-09T08:37:59.961Z,3.80
2017-07-09T08:40:27.409Z,3.83
2017-07-09T08:42:54.885Z,3.70
2017-07-09T08:45:22.351Z,3.63
2017-07-09T08:47:50.614Z,4.07
2017-07-09T08:50:18.172Z,3.80
2017-07-09T08:52:45.731Z,3.10
2017-07-09T08:55:13.196Z,3.50
2017-07-09T08:57:40.741Z,3.37
2017-07-09T09:00:08.197Z,3.60
2017-07-09T09:02:35.667Z,4.53
2017-07-09T09:05:04.125Z,4.27
2017-07-09T09:07:31.689Z,3.57
2017-07-09T09:09:59.209Z,4.30
2017-07-09T09:12:27.014Z,3.73
2017-07-09T09:14:54.573Z,4.00
2017-07-09T09:17:22.033Z,3.93
2017-07-09T09:19:49.490Z,4.17
2017-07-09T09:22:17.046Z,4.30
2017-07-09T09:24:44.515Z,3.87
2017-07-09T09:27:11.978Z,4.30
2017-07-09T09:29:40.234Z,4.07
2017-07-09T09:32:07.785Z,4.57
2017-07-09T09:34:35.362Z,3.63
2017-07-09T09:37:03.634Z,3.47
2017-07-09T09:39:31.096Z,4.30
2017-07-09T09:41:59.363Z,4.10
2017-07-09T09:44:26.923Z,4.40
2017-07-09T09:46:54.589Z,4.27
2017-07-09T09:49:22.265Z,4.57
2017-07-09T09:51:50.569Z,3.80
2017-07-09T09:54:18.064Z,3.83
2017-07-09T09:56:45.630Z,3.77
2017-07-09T09:59:13.087Z,4.40
2017-07-09T10:01:40.646Z,4.27
2017-07-09T10:04:08.211Z,4.00
2017-07-09T10:06:35.679Z,4.50
2017-07-09T10:09:03.902Z,4.10
2017-07-09T10:11:31.390Z,4.97
2017-07-09T10:13:58.845Z,3.90
2017-07-09T10:16:26.310Z,5.07
2017-07-09T10:18:53.867Z,3.90
2017-07-09T10:21:21.335Z,3.93
2017-07-09T10:23:48.882Z,4.60
2017-07-09T10:26:16.448Z,3.53
2017-07-09T10:28:43.990Z,3.53
2017-07-09T10:31:11.544Z,3.40
2017-07-09T10:33:39.114Z,3.47
2017-07-09T10:36:06.564Z,3.50
2017-07-09T10:38:34.190Z,3.87
2017-07-09T10:41:01.641Z,3.63
2017-07-09T10:43:29.109Z,4.73
2017-07-09T10:45:56.593Z,3.87
2017-07-09T10:48:24.065Z,4.37
2017-07-09T10:50:51.522Z,5.80
2017-07-09T10:53:19.030Z,4.17
2017-07-09T10:55:46.491Z,3.80
2017-07-09T10:58:13.963Z,3.60
2017-07-09T11:00:41.423Z,4.20
2017-07-09T11:03:08.877Z,4.07
2017-07-09T11:05:36.367Z,4.53
2017-07-09T11:08:04.590Z,4.63
2017-07-09T11:10:32.089Z,4.67
2017-07-09T11:12:59.536Z,3.90
2017-07-09T11:15:27.007Z,4.00
2017-07-09T11:17:54.507Z,5.20
2017-07-09T11:20:22.009Z,5.93
2017-07-09T11:22:49.470Z,4.47
2017-07-09T11:25:17.028Z,4.27
2017-07-09T11:27:44.648Z,3.90
2017-07-09T11:30:12.155Z,4.57
2017-07-09T11:32:39.616Z,4.03
2017-07-09T11:35:07.227Z,4.90
2017-07-09T11:37:34.724Z,4.57
2017-07-09T11:40:03.249Z,5.10
2017-07-09T11:42:30.727Z,5.50
2017-07-09T11:44:58.217Z,4.93
2017-07-09T11:47:25.690Z,4.80
2017-07-09T11:49:53.941Z,4.83
2017-07-09T11:52:21.515Z,5.00
2017-07-09T11:54:49.084Z,4.93
2017-07-09T11:57:17.320Z,4.13
2017-07-09T11:59:44.797Z,4.93
2017-07-09T12:02:12.366Z,5.13
2017-07-09T12:04:39.898Z,4.60
2017-07-09T12:07:07.388Z,5.10
2017-07-09T12:09:35.605Z,5.97
2017-07-09T12:12:03.105Z,4.90
2017-07-09T12:14:30.571Z,4.63
2017-07-09T12:16:58.116Z,4.30
2017-07-09T12:19:25.683Z,5.90
2017-07-09T12:21:53.146Z,4.57
2017-07-09T12:24:20.685Z,5.70
2017-07-09T12:26:48.259Z,5.70
2017-07-09T12:29:15.723Z,6.10
2017-07-09T12:31:43.950Z,6.73
2017-07-09T12:34:11.409Z,6.60
2017-07-09T12:36:38.890Z,6.87
2017-07-09T12:39:06.453Z,8.63
2017-07-09T12:41:33.919Z,6.80
2017-07-09T12:44:01.479Z,5.40
2017-07-09T12:46:29.024Z,5.07
2017-07-09T12:48:56.595Z,6.10
2017-07-09T12:51:24.110Z,4.97
2017-07-09T12:53:51.571Z,6.07
2017-07-09T12:56:19.053Z,6.53
2017-07-09T12:58:46.525Z,5.40
2017-07-09T13:01:13.981Z,5.77
2017-07-09T13:03:41.539Z,4.53
2017-07-09T13:06:08.998Z,5.30
2017-07-09T13:08:37.271Z,5.60
2017-07-09T13:11:04.839Z,5.63
2017-07-09T13:13:32.307Z,5.73
2017-07-09T13:16:00.558Z,5.23
2017-07-09T13:18:28.119Z,5.73
2017-07-09T13:20:55.588Z,5.00
2017-07-09T13:23:23.820Z,5.17
2017-07-09T13:25:51.336Z,4.90
2017-07-09T13:28:18.869Z,5.03
2017-07-09T13:30:46.318Z,4.57
2017-07-09T13:33:13.883Z,5.00
2017-07-09T13:35:41.350Z,4.90
2017-07-09T13:38:09.604Z,5.03
2017-07-09T13:40:37.068Z,5.07
2017-07-09T13:43:04.528Z,5.00
2017-07-09T13:45:32.804Z,4.50
2017-07-09T13:48:00.354Z,4.83
2017-07-09T13:50:27.828Z,3.60
2017-07-09T13:52:56.085Z,4.10
2017-07-09T13:55:23.533Z,4.17
2017-07-09T13:57:50.997Z,3.77
2017-07-09T14:00:18.463Z,4.30
2017-07-09T14:02:45.920Z,4.57
2017-07-09T14:05:13.469Z,4.87
2017-07-09T14:07:41.038Z,4.10
2017-07-09T14:10:08.581Z,4.77
2017-07-09T14:12:36.146Z,4.50
2017-07-09T14:15:03.661Z,4.50
2017-07-09T14:17:31.167Z,4.47
2017-07-09T14:19:58.728Z,4.50
2017-07-09T14:22:26.282Z,4.23
2017-07-09T14:24:53.837Z,4.53
2017-07-09T14:27:21.400Z,4.40
2017-07-09T14:29:48.954Z,4.10
2017-07-09T14:32:16.523Z,4.03
2017-07-09T14:34:43.977Z,4.77
2017-07-09T14:37:11.532Z,4.40
2017-07-09T14:39:39.086Z,4.40
2017-07-09T14:42:06.646Z,4.40
2017-07-09T14:44:34.097Z,4.60
2017-07-09T14:47:01.557Z,4.10
2017-07-09T14:49:29.024Z,4.43
2017-07-09T14:51:56.598Z,3.53
2017-07-09T14:54:24.060Z,4.23
2017-07-09T14:56:52.325Z,4.10
2017-07-09T14:59:20.929Z,4.07
2017-07-09T15:01:48.455Z,3.27
2017-07-09T15:04:16.012Z,4.03
2017-07-09T15:06:43.465Z,3.77
2017-07-09T15:09:11.027Z,3.90
2017-07-09T15:11:38.570Z,3.83
2017-07-09T15:14:06.044Z,3.47
2017-07-09T15:16:34.323Z,3.93
2017-07-09T15:19:02.678Z,4.03
2017-07-09T15:21:30.143Z,3.60
2017-07-09T15:23:57.602Z,4.23
2017-07-09T15:26:25.071Z,4.20
2017-07-09T15:28:53.335Z,4.00
2017-07-09T15:31:20.894Z,3.90
2017-07-09T15:33:48.440Z,3.50
2017-07-09T15:36:15.899Z,4.40
2017-07-09T15:38:43.461Z,4.40
2017-07-09T15:41:10.915Z,4.73
2017-07-09T15:43:38.392Z,4.13
2017-07-09T15:46:05.891Z,4.20
2017-07-09T15:48:33.350Z,4.30
2017-07-09T15:51:00.908Z,3.90
2017-07-09T15:53:28.396Z,4.27
2017-07-09T15:55:55.854Z,3.80
2017-07-09T15:58:23.318Z,4.27
2017-07-09T16:00:50.887Z,4.20
2017-07-09T16:03:18.346Z,4.07
2017-07-09T16:05:46.573Z,3.50
2017-07-09T16:08:14.075Z,3.87
2017-07-09T16:10:41.639Z,3.97
2017-07-09T16:13:09.865Z,4.40
2017-07-09T16:15:37.358Z,4.83
2017-07-09T16:18:04.835Z,3.80
2017-07-09T16:20:33.062Z,4.63
2017-07-09T16:23:00.562Z,4.60
2017-07-09T16:25:28.809Z,4.00
2017-07-09T16:27:56.261Z,4.30
2017-07-09T16:30:23.847Z,4.50
2017-07-09T16:32:51.414Z,4.40
2017-07-09T16:35:18.947Z,3.83
2017-07-09T16:37:46.515Z,4.70
2017-07-09T16:40:13.961Z,3.63
2017-07-09T16:42:41.543Z,3.97
2017-07-09T16:45:09.812Z,3.50
2017-07-09T16:47:37.370Z,4.43
2017-07-09T16:50:04.826Z,3.97
2017-07-09T16:52:32.385Z,4.03
2017-07-09T16:54:59.944Z,3.87
2017-07-09T16:57:28.693Z,4.17
2017-07-09T16:59:56.273Z,4.27
2017-07-09T17:02:23.872Z,4.43
2017-07-09T17:04:51.397Z,4.03
2017-07-09T17:07:18.862Z,3.87
2017-07-09T17:09:46.372Z,4.23
2017-07-09T17:12:13.830Z,4.27
2017-07-09T17:14:41.327Z,3.80
2017-07-09T17:17:08.782Z,3.70
2017-07-09T17:19:36.249Z,3.57
2017-07-09T17:22:03.692Z,3.90
2017-07-09T17:24:31.153Z,3.83
2017-07-09T17:26:58.619Z,3.50
2017-07-09T17:29:26.177Z,3.30
2017-07-09T17:31:54.420Z,2.70
2017-07-09T17:34:21.893Z,3.03
2017-07-09T17:36:49.359Z,3.63
2017-07-09T17:39:16.915Z,3.20
2017-07-09T17:41:44.381Z,3.60
2017-07-09T17:44:11.921Z,2.77
2017-07-09T17:46:39.375Z,2.67
2017-07-09T17:49:07.006Z,2.90
2017-07-09T17:51:34.507Z,2.97
2017-07-09T17:54:02.070Z,2.60
2017-07-09T17:56:29.627Z,2.73
2017-07-09T17:58:57.099Z,2.63
2017-07-09T18:01:25.349Z,3.03
2017-07-09T18:03:52.866Z,2.60
2017-07-09T18:06:20.361Z,2.23
2017-07-09T18:08:47.957Z,2.17
2017-07-09T18:11:16.193Z,2.70
2017-07-09T18:13:43.769Z,2.50
2017-07-09T18:16:12.018Z,4.17
2017-07-09T18:18:39.493Z,2.70
2017-07-09T18:21:07.062Z,2.67
2017-07-09T18:23:35.293Z,2.40
2017-07-09T18:26:02.767Z,2.63
2017-07-09T18:28:30.225Z,2.70
2017-07-09T18:30:57.785Z,2.10
2017-07-09T18:33:25.360Z,2.70
2017-07-09T18:35:52.910Z,2.73
2017-07-09T18:38:20.365Z,2.70
2017-07-09T18:40:47.832Z,3.17
2017-07-09T18:43:15.392Z,3.17
2017-07-09T18:45:42.950Z,2.50
2017-07-09T18:48:10.418Z,2.07
2017-07-09T18:50:38.650Z,2.70
2017-07-09T18:53:06.135Z,3.40
2017-07-09T18:55:33.602Z,3.23
2017-07-09T18:58:01.869Z,2.70
2017-07-09T19:00:29.453Z,3.10
2017-07-09T19:02:56.987Z,2.73
2017-07-09T19:05:24.525Z,2.83
2017-07-09T19:07:51.995Z,2.60
2017-07-09T19:10:19.564Z,2.47
2017-07-09T19:12:47.122Z,2.90
2017-07-09T19:15:14.718Z,2.27
2017-07-09T19:17:42.239Z,2.80
2017-07-09T19:20:09.799Z,2.50
2017-07-09T19:22:37.288Z,2.50
2017-07-09T19:25:04.744Z,2.50
2017-07-09T19:27:32.223Z,2.43
2017-07-09T19:29:59.720Z,2.37
2017-07-09T19:32:27.283Z,2.57
2017-07-09T19:34:54.834Z,2.73
2017-07-09T19:37:22.385Z,2.40
2017-07-09T19:39:49.884Z,2.47
2017-07-09T19:42:17.415Z,2.77
2017-07-09T19:44:44.911Z,3.50
2017-07-09T19:47:12.436Z,2.87
2017-07-09T19:49:40.683Z,2.73
2017-07-09T19:52:08.137Z,2.73
2017-07-09T19:54:35.593Z,2.67
2017-07-09T19:57:03.891Z,3.10
2017-07-09T19:59:31.376Z,3.03
2017-07-09T20:01:59.606Z,3.20
2017-07-09T20:04:27.157Z,2.90
2017-07-09T20:06:54.626Z,3.60
2017-07-09T20:09:22.079Z,3.27
2017-07-09T20:11:49.658Z,4.23
2017-07-09T20:14:17.217Z,3.10
2017-07-09T20:16:44.690Z,3.43
2017-07-09T20:19:13.348Z,3.90
2017-07-09T20:21:40.819Z,3.33
2017-07-09T20:24:09.139Z,3.40
2017-07-09T20:26:36.649Z,3.33
2017-07-09T20:29:04.889Z,3.57
2017-07-09T20:31:32.350Z,3.80
2017-07-09T20:33:59.817Z,3.40
2017-07-09T20:36:27.275Z,4.33
2017-07-09T20:38:54.836Z,4.17
2017-07-09T20:41:22.290Z,4.60
2017-07-09T20:43:49.753Z,3.87
2017-07-09T20:46:17.210Z,3.47
2017-07-09T20:48:44.675Z,4.70
2017-07-09T20:51:12.221Z,4.50
2017-07-09T20:53:40.849Z,4.57
2017-07-09T20:56:09.350Z,4.20
2017-07-09T20:58:36.954Z,4.50
2017-07-09T21:01:04.454Z,5.57
2017-07-09T21:03:32.074Z,4.80
2017-07-09T21:05:59.530Z,5.07
2017-07-09T21:08:27.086Z,4.20
2017-07-09T21:10:54.542Z,5.33
2017-07-09T21:13:22.032Z,5.00
2017-07-09T21:15:49.534Z,5.30
2017-07-09T21:18:16.985Z,4.80
2017-07-09T21:20:44.455Z,4.60
2017-07-09T21:23:11.917Z,4.23
2017-07-09T21:25:39.473Z,4.70
2017-07-09T21:28:06.938Z,4.73
2017-07-09T21:30:34.483Z,4.70
2017-07-09T21:33:01.933Z,4.20
2017-07-09T21:35:29.402Z,3.63
2017-07-09T21:37:56.971Z,4.00
2017-07-09T21:40:24.433Z,4.00
2017-07-09T21:42:51.982Z,4.17
2017-07-09T21:45:19.537Z,3.97
2017-07-09T21:47:47.118Z,3.60
2017-07-09T21:50:15.374Z,3.13
2017-07-09T21:52:42.944Z,3.30
2017-07-09T21:55:10.406Z,3.53
2017-07-09T21:57:38.671Z,2.97
2017-07-09T22:00:06.231Z,3.40
2017-07-09T22:02:33.740Z,3.30
2017-07-09T22:05:01.236Z,2.70
2017-07-09T22:07:28.704Z,4.53
2017-07-09T22:09:56.259Z,3.23
2017-07-09T22:12:23.823Z,3.70
2017-07-09T22:14:52.050Z,2.80
2017-07-09T22:17:19.541Z,2.53
2017-07-09T22:19:46.993Z,2.90
2017-07-09T22:22:14.875Z,2.90
2017-07-09T22:24:42.435Z,2.70
2017-07-09T22:27:09.991Z,2.70
2017-07-09T22:29:37.555Z,3.00
2017-07-09T22:32:05.169Z,2.80
2017-07-09T22:34:32.633Z,2.93
2017-07-09T22:37:00.098Z,2.67
2017-07-09T22:39:27.578Z,2.90
2017-07-09T22:41:55.034Z,2.70
2017-07-09T22:44:22.485Z,3.03
2017-07-09T22:46:49.959Z,2.37
2017-07-09T22:49:18.233Z,3.37
2017-07-09T22:51:46.453Z,2.50
2017-07-09T22:54:13.956Z,2.60
2017-07-09T22:56:41.519Z,5.37
2017-07-09T22:59:09.090Z,3.27
2017-07-09T23:01:44.066Z,2.80
2017-07-09T23:04:11.618Z,2.60
2017-07-09T23:06:39.126Z,2.70
2017-07-09T23:09:06.589Z,2.47
2017-07-09T23:11:34.854Z,2.40
2017-07-09T23:14:02.409Z,2.50
2017-07-09T23:16:29.861Z,2.60
2017-07-09T23:18:57.319Z,2.60
2017-07-09T23:21:24.768Z,2.47
2017-07-09T23:23:52.433Z,2.37
2017-07-09T23:26:19.965Z,2.00
2017-07-09T23:28:47.438Z,3.07
2017-07-09T23:31:15.017Z,2.13
2017-07-09T23:33:43.281Z,2.67
2017-07-09T23:36:10.845Z,3.40
2017-07-09T23:38:38.301Z,1.97
2017-07-09T23:41:05.870Z,2.63
2017-07-09T23:43:33.417Z,2.17
2017-07-09T23:46:00.886Z,2.13
2017-07-09T23:48:28.336Z,2.60
2017-07-09T23:50:55.889Z,2.43
2017-07-09T23:53:23.447Z,2.60
2017-07-09T23:55:52.584Z,2.47
2017-07-09T23:58:20.105Z,1.90
